Time;durP1;ratioP1;P1;durP2;ratioP2;P2;SDS_P1;SDS_P2;PMS_P1;PMS_P2;Temp;Humidity;BMP_temperature;BMP_pressure;BME280_temperature;BME280_humidity;BME280_pressure;Samples;Min_cycle;Max_cycle;Signal;HPM_P1;HPM_P2
2022/02/05 00:00:28;;;;;;;2.17;1.23;;;;;;;6.02;98.58;96742.31;5015830;28;20041;-64
2022/02/05 00:06:06;;;;;;;2.38;1.42;;;;;;;6.00;98.44;96742.63;5020461;28;20052;-63
2022/02/05 00:43:17;;;;;;;0.75;0.75;;;;;;;4.01;100.00;96873.63;5009915;28;20033;-62
2022/02/05 00:45:48;;;;;;;1.15;0.80;;;;;;;3.75;100.00;96876.34;5020254;28;20033;-62
2022/02/05 00:48:13;;;;;;;0.93;0.70;;;;;;;3.61;100.00;96879.97;5011760;28;20061;-60
2022/02/05 00:50:43;;;;;;;1.65;0.90;;;;;;;3.47;100.00;96883.94;5018389;28;20649;-62
2022/02/05 00:53:27;;;;;;;1.67;1.17;;;;;;;3.36;100.00;96894.25;5010864;28;20551;-63
2022/02/05 00:56:09;;;;;;;0.98;0.70;;;;;;;3.28;100.00;96897.72;5015195;28;20136;-62
2022/02/05 00:58:38;;;;;;;1.50;1.10;;;;;;;3.25;100.00;96891.84;5010768;28;20037;-62
2022/02/05 01:01:06;;;;;;;1.00;0.90;;;;;;;3.23;100.00;96898.69;5012767;28;20075;-62
2022/02/05 01:03:33;;;;;;;5.13;2.05;;;;;;;3.30;100.00;96898.25;5016321;28;20037;-59
2022/02/05 01:06:00;;;;;;;1.38;1.20;;;;;;;3.25;100.00;96905.38;5018235;28;20128;-63
2022/02/05 01:08:25;;;;;;;2.15;1.05;;;;;;;3.27;100.00;96896.94;5013950;28;20231;-60
2022/02/05 01:10:52;;;;;;;1.58;0.90;;;;;;;3.24;100.00;96908.38;5013768;28;20143;-61
2022/02/05 01:13:17;;;;;;;2.00;0.77;;;;;;;3.27;100.00;96907.78;5013580;28;20041;-60
2022/02/05 01:18:22;;;;;;;1.17;0.93;;;;;;;3.25;100.00;96902.66;5006365;28;20073;-61
2022/02/05 01:21:08;;;;;;;0.90;0.90;;;;;;;3.25;100.00;96913.50;5018620;28;20037;-62
2022/02/05 01:23:51;;;;;;;1.45;1.05;;;;;;;3.27;100.00;96912.41;5011453;28;20045;-64
2022/02/05 01:26:25;;;;;;;1.00;0.90;;;;;;;3.33;100.00;96911.13;5004556;28;20042;-62
2022/02/05 01:28:57;;;;;;;1.70;0.82;;;;;;;3.29;100.00;96927.19;5017455;28;20098;-61
2022/02/05 01:31:27;;;;;;;1.15;0.80;;;;;;;3.32;100.00;96933.91;5011302;28;20932;-62
2022/02/05 01:39:25;;;;;;;1.85;1.23;;;;;;;3.17;100.00;96935.94;5008144;28;20140;-63
2022/02/05 02:05:34;;;;;;;1.30;1.20;;;;;;;3.04;100.00;96963.88;4999116;28;20273;-64
2022/02/05 02:28:44;;;;;;;3.88;1.92;;;;;;;2.61;100.00;97005.81;5019605;28;20358;-62
2022/02/05 02:31:15;;;;;;;4.70;1.60;;;;;;;2.90;100.00;97001.03;5009988;28;20379;-63
2022/02/05 02:33:45;;;;;;;2.40;1.50;;;;;;;2.85;100.00;97002.78;5017095;28;20053;-62
2022/02/05 02:36:27;;;;;;;3.17;1.45;;;;;;;2.90;100.00;97004.56;5010505;28;20514;-62
2022/02/05 02:38:57;;;;;;;2.05;1.63;;;;;;;2.87;100.00;97005.97;5021147;28;20111;-61
2022/02/05 02:41:27;;;;;;;2.83;1.60;;;;;;;2.93;100.00;97012.03;5011919;28;20132;-62
2022/02/05 02:43:53;;;;;;;3.25;1.67;;;;;;;2.90;100.00;97015.38;5019815;28;20128;-61
2022/02/05 02:46:20;;;;;;;1.92;1.45;;;;;;;2.75;100.00;97013.84;5012258;28;20048;-63
2022/02/05 02:48:47;;;;;;;1.65;1.30;;;;;;;2.80;99.51;97018.34;5019147;28;20120;-63
2022/02/05 03:01:57;;;;;;;1.95;1.60;;;;;;;2.85;95.78;97039.84;5017636;28;20052;-63
2022/02/05 03:04:22;;;;;;;1.52;1.40;;;;;;;3.02;96.13;97041.88;5013282;28;20059;-63
2022/02/05 03:06:48;;;;;;;2.58;1.38;;;;;;;3.02;96.38;97049.97;5015621;28;20407;-63
2022/02/05 03:09:13;;;;;;;1.77;1.30;;;;;;;2.93;96.57;97055.34;5016048;28;20248;-62
2022/02/05 03:11:38;;;;;;;3.08;1.38;;;;;;;2.93;95.48;97063.44;5017648;28;20048;-63
2022/02/05 03:14:04;;;;;;;2.97;1.75;;;;;;;2.85;95.96;97065.00;5017285;28;20495;-66
2022/02/05 03:16:35;;;;;;;1.48;1.38;;;;;;;2.94;95.08;97075.09;5018883;28;20088;-65
2022/02/05 03:19:10;;;;;;;1.88;1.60;;;;;;;2.90;95.90;97084.91;5018503;28;20103;-65
2022/02/05 03:21:36;;;;;;;3.08;1.38;;;;;;;2.83;96.17;97080.75;5015582;28;20057;-63
2022/02/05 03:24:04;;;;;;;2.53;1.52;;;;;;;2.86;95.24;97090.13;5016248;28;20037;-62
2022/02/05 03:26:32;;;;;;;4.43;1.60;;;;;;;2.88;94.29;97098.75;4996040;28;20049;-64
2022/02/05 03:28:58;;;;;;;2.75;1.52;;;;;;;2.87;94.32;97102.56;5018038;28;20044;-64
2022/02/05 03:31:23;;;;;;;2.03;1.25;;;;;;;2.83;96.58;97112.41;5010420;28;20053;-62
2022/02/05 03:33:48;;;;;;;2.25;1.58;;;;;;;2.78;96.00;97109.81;5017921;28;20037;-64
2022/02/05 03:36:14;;;;;;;2.13;1.20;;;;;;;2.74;96.89;97117.75;5029220;28;20041;-64
2022/02/05 03:38:40;;;;;;;2.10;1.35;;;;;;;2.67;96.94;97122.78;5021525;28;20050;-62
2022/02/05 03:41:05;;;;;;;1.92;1.30;;;;;;;2.67;97.46;97117.38;5009010;28;20425;-62
2022/02/05 03:43:30;;;;;;;2.17;1.20;;;;;;;2.72;96.59;97122.66;5016115;28;20055;-64
2022/02/05 03:45:56;;;;;;;1.65;1.30;;;;;;;2.72;97.20;97128.06;5016407;28;20069;-63
2022/02/05 03:48:21;;;;;;;1.45;1.30;;;;;;;2.76;96.01;97128.25;5011990;28;20054;-60
2022/02/05 03:50:47;;;;;;;3.25;1.30;;;;;;;2.62;97.95;97131.78;5014232;28;20048;-64
2022/02/05 03:53:12;;;;;;;3.47;1.40;;;;;;;2.45;98.68;97137.84;5013696;28;20041;-64
2022/02/05 03:55:38;;;;;;;2.53;1.58;;;;;;;2.49;99.34;97144.25;5012360;28;20381;-64
2022/02/05 03:58:05;;;;;;;1.55;1.40;;;;;;;2.47;98.59;97148.34;5013987;28;20103;-63
2022/02/05 04:00:30;;;;;;;3.47;1.40;;;;;;;2.46;97.79;97146.75;5012453;28;20048;-65
2022/02/05 04:02:58;;;;;;;2.20;1.48;;;;;;;2.45;96.09;97150.56;5041319;28;20100;-64
2022/02/05 04:05:24;;;;;;;2.40;1.40;;;;;;;2.51;94.35;97154.75;5025217;28;20418;-64
2022/02/05 04:07:52;;;;;;;4.78;1.52;;;;;;;2.48;92.61;97166.16;5016741;28;20049;-64
2022/02/05 04:10:24;;;;;;;2.42;1.50;;;;;;;2.43;94.06;97167.09;5015035;28;20225;-63
2022/02/05 04:18:21;;;;;;;3.05;1.50;;;;;;;2.15;94.28;97174.41;5013268;28;20060;-62
2022/02/05 04:20:47;;;;;;;2.67;1.63;;;;;;;2.12;94.76;97177.69;5016489;28;20474;-62
2022/02/05 04:23:13;;;;;;;2.70;1.50;;;;;;;2.05;95.01;97174.59;5014079;28;20088;-64
2022/02/05 04:25:39;;;;;;;2.20;1.50;;;;;;;1.95;95.75;97177.50;5015029;28;20061;-64
2022/02/05 04:28:05;;;;;;;2.42;1.58;;;;;;;1.90;96.92;97191.88;5012293;28;20455;-63
2022/02/05 04:30:30;;;;;;;2.08;1.35;;;;;;;2.05;95.27;97196.19;5014762;28;20038;-63
2022/02/05 04:32:56;;;;;;;1.40;1.25;;;;;;;2.07;93.56;97202.94;5019826;28;20567;-64
2022/02/05 04:35:21;;;;;;;1.90;1.40;;;;;;;1.95;91.68;97197.19;5013776;28;20064;-64
2022/02/05 04:37:50;;;;;;;2.38;1.55;;;;;;;1.83;91.04;97192.28;5017497;28;20095;-63
2022/02/05 04:43:47;;;;;;;4.07;1.88;;;;;;;2.03;89.16;97204.59;5017858;28;20034;-64
2022/02/05 04:51:32;;;;;;;3.42;2.08;;;;;;;1.66;91.31;97219.84;5013473;28;20418;-63
2022/02/05 04:54:08;;;;;;;3.33;1.40;;;;;;;1.53;92.41;97226.00;5014682;28;20041;-61
2022/02/05 04:57:05;;;;;;;4.40;1.75;;;;;;;1.42;93.89;97229.97;5014005;28;20272;-62
2022/02/05 05:06:01;;;;;;;2.08;1.55;;;;;;;1.58;90.49;97236.72;5012360;28;20046;-64
2022/02/05 05:10:41;;;;;;;4.00;2.10;;;;;;;1.16;93.55;97232.25;5011008;28;20041;-62
2022/02/05 05:13:16;;;;;;;3.08;2.42;;;;;;;1.03;95.79;97234.59;5010400;28;20438;-63
2022/02/05 05:21:11;;;;;;;4.63;1.90;;;;;;;0.75;98.41;97239.00;5014917;28;20407;-63
2022/02/05 05:23:36;;;;;;;4.72;2.10;;;;;;;0.66;99.53;97240.75;5011529;28;20112;-60
2022/02/05 05:26:02;;;;;;;4.85;1.83;;;;;;;0.63;99.81;97242.13;5016668;28;20069;-63
2022/02/05 05:28:27;;;;;;;3.42;1.88;;;;;;;0.60;99.74;97252.69;5013656;28;20033;-61
2022/02/05 05:30:53;;;;;;;7.03;2.50;;;;;;;0.68;99.55;97262.81;5018647;28;20441;-63
2022/02/05 05:33:18;;;;;;;3.00;2.00;;;;;;;0.79;98.76;97264.28;5010489;28;20037;-61
2022/02/05 05:35:44;;;;;;;4.00;2.05;;;;;;;0.78;98.71;97261.91;5014847;28;20034;-62
2022/02/05 05:38:09;;;;;;;3.13;2.05;;;;;;;0.69;97.35;97267.13;5010720;28;20051;-63
2022/02/05 05:40:41;;;;;;;5.32;1.75;;;;;;;0.53;98.10;97264.59;5017789;28;20045;-62
2022/02/05 05:43:17;;;;;;;3.22;1.80;;;;;;;0.46;98.74;97264.16;5010752;28;20099;-63
2022/02/05 05:48:14;;;;;;;2.78;1.90;;;;;;;0.14;100.00;97270.94;5009194;28;20389;-61
2022/02/05 05:53:10;;;;;;;9.48;3.13;;;;;;;-0.04;100.00;97271.66;5011370;28;20513;-63
2022/02/05 05:55:40;;;;;;;4.43;2.28;;;;;;;-0.12;100.00;97267.72;5012721;28;20065;-64
2022/02/05 05:58:06;;;;;;;5.00;2.63;;;;;;;-0.18;100.00;97270.72;5010692;28;20498;-63
2022/02/05 06:00:31;;;;;;;5.78;2.88;;;;;;;-0.26;100.00;97272.13;5017809;28;20045;-64
2022/02/05 06:02:56;;;;;;;3.03;2.05;;;;;;;-0.30;100.00;97281.88;5018542;28;20506;-63
2022/02/05 06:05:22;;;;;;;8.38;2.30;;;;;;;-0.34;100.00;97278.94;5006177;28;20057;-61
2022/02/05 06:07:48;;;;;;;4.70;2.80;;;;;;;-0.30;100.00;97290.75;5017070;28;20111;-64
2022/02/05 06:10:13;;;;;;;6.15;2.45;;;;;;;-0.23;100.00;97290.44;5008504;28;20045;-64
2022/02/05 06:12:39;;;;;;;8.45;3.10;;;;;;;-0.33;100.00;97298.56;5017442;28;20056;-64
2022/02/05 06:15:07;;;;;;;4.00;2.17;;;;;;;-0.45;100.00;97307.81;5014238;28;20049;-65
2022/02/05 06:17:33;;;;;;;5.03;2.60;;;;;;;-0.61;100.00;97314.38;5013960;28;20068;-63
2022/02/05 06:19:59;;;;;;;4.80;2.20;;;;;;;-0.90;100.00;97320.47;5015279;28;20065;-63
2022/02/05 06:22:24;;;;;;;6.05;2.03;;;;;;;-1.01;100.00;97322.41;5001218;28;20056;-64
2022/02/05 06:24:51;;;;;;;8.10;2.38;;;;;;;-0.96;100.00;97321.56;5017684;28;20045;-64
2022/02/05 06:27:16;;;;;;;5.28;2.20;;;;;;;-0.92;100.00;97324.50;5010421;28;20430;-63
2022/02/05 06:29:42;;;;;;;4.82;2.80;;;;;;;-0.89;100.00;97321.28;5017567;28;20037;-62
2022/02/05 06:32:08;;;;;;;4.82;2.28;;;;;;;-0.79;100.00;97322.03;5012617;28;20069;-63
2022/02/05 06:34:33;;;;;;;4.78;2.67;;;;;;;-0.55;100.00;97315.97;5014468;28;20063;-62
2022/02/05 06:36:58;;;;;;;3.22;2.47;;;;;;;-0.44;100.00;97316.69;5031550;28;20105;-63
2022/02/05 06:39:25;;;;;;;5.32;2.33;;;;;;;-0.48;100.00;97327.22;5011784;28;20067;-64
2022/02/05 06:41:51;;;;;;;5.55;2.92;;;;;;;-0.52;100.00;97334.25;5016902;28;20061;-63
2022/02/05 06:44:17;;;;;;;6.70;3.00;;;;;;;-0.49;100.00;97339.03;5005414;28;20065;-61
2022/02/05 06:46:43;;;;;;;7.47;3.38;;;;;;;-0.44;100.00;97341.72;5014778;28;20057;-61
2022/02/05 06:49:09;;;;;;;6.55;3.97;;;;;;;-0.51;100.00;97341.22;5011432;28;20053;-63
2022/02/05 06:51:35;;;;;;;6.90;3.15;;;;;;;-0.64;100.00;97339.94;5018669;28;20453;-63
2022/02/05 06:54:01;;;;;;;6.80;3.38;;;;;;;-0.84;100.00;97348.94;5014837;28;20045;-63
2022/02/05 06:56:27;;;;;;;8.02;3.40;;;;;;;-0.76;100.00;97347.53;5011172;28;20052;-62
2022/02/05 06:58:52;;;;;;;7.57;2.85;;;;;;;-0.71;100.00;97354.78;5014133;28;20045;-63
2022/02/05 07:01:17;;;;;;;4.13;2.55;;;;;;;-0.64;100.00;97345.34;5014745;28;20038;-62
2022/02/05 07:03:43;;;;;;;5.28;2.83;;;;;;;-0.68;100.00;97363.13;5019943;28;20087;-64
2022/02/05 07:06:08;;;;;;;5.60;3.33;;;;;;;-0.72;100.00;97359.38;5014145;28;20056;-62
2022/02/05 07:08:34;;;;;;;5.22;3.00;;;;;;;-0.71;100.00;97360.19;5021573;28;20103;-63
2022/02/05 07:10:59;;;;;;;7.00;4.15;;;;;;;-0.63;100.00;97357.72;5014850;28;20046;-66
2022/02/05 07:13:25;;;;;;;9.35;3.60;;;;;;;-0.58;100.00;97356.88;5031872;28;20049;-64
2022/02/05 07:16:04;;;;;;;8.63;4.60;;;;;;;-0.70;100.00;97365.28;5030833;28;20555;-64
2022/02/05 07:19:22;;;;;;;33.33;18.95;;;;;;;-1.19;100.00;97366.00;5019132;28;20056;-64
2022/02/05 07:21:44;;;;;;;28.75;22.35;;;;;;;-1.46;100.00;97372.56;5006850;28;20418;-63
2022/02/05 07:29:16;;;;;;;10.13;6.45;;;;;;;-0.77;100.00;97378.22;5012416;28;20091;-62
2022/02/05 07:32:00;;;;;;;6.90;5.60;;;;;;;0.16;100.00;97368.47;5017230;28;20136;-64
2022/02/05 07:34:30;;;;;;;6.00;3.40;;;;;;;1.38;100.00;97375.50;5011958;28;20111;-63
2022/02/05 07:37:01;;;;;;;4.70;2.90;;;;;;;2.53;98.28;97373.50;5019838;28;20122;-63
2022/02/05 07:39:28;;;;;;;5.93;2.80;;;;;;;3.83;91.07;97374.09;5017338;28;20129;-63
2022/02/05 07:41:55;;;;;;;6.28;2.60;;;;;;;5.14;80.85;97386.53;5024530;28;20087;-65
2022/02/05 07:44:21;;;;;;;6.45;3.08;;;;;;;6.31;73.09;97391.50;5013642;28;20057;-64
2022/02/05 07:46:49;;;;;;;7.82;3.10;;;;;;;7.28;68.01;97392.84;5014957;28;20045;-64
2022/02/05 07:49:16;;;;;;;4.63;2.40;;;;;;;8.08;63.14;97392.00;5011920;28;20048;-65
2022/02/05 07:51:43;;;;;;;5.65;2.25;;;;;;;8.52;58.71;97387.00;5019760;28;20398;-64
2022/02/05 07:54:11;;;;;;;3.85;2.38;;;;;;;8.46;58.83;97401.19;5014267;28;20033;-65
2022/02/05 07:56:48;;;;;;;5.97;2.60;;;;;;;7.64;59.25;97397.00;5018983;28;20778;-65
2022/02/05 07:59:15;;;;;;;8.27;2.30;;;;;;;6.70;62.26;97395.94;5016512;28;20183;-64
2022/02/05 08:01:40;;;;;;;7.18;2.50;;;;;;;6.15;63.05;97410.25;5018219;28;20513;-64
2022/02/05 08:04:07;;;;;;;5.43;3.03;;;;;;;5.99;65.49;97403.69;5011131;28;20106;-65
2022/02/05 08:06:34;;;;;;;6.20;2.42;;;;;;;5.87;66.46;97405.09;5027097;28;20655;-65
2022/02/05 08:09:03;;;;;;;6.30;2.95;;;;;;;5.69;68.65;97411.59;5023041;28;20048;-63
2022/02/05 08:11:39;;;;;;;5.20;2.58;;;;;;;5.36;72.43;97412.00;5016806;28;20045;-65
2022/02/05 08:14:08;;;;;;;4.70;1.98;;;;;;;6.05;66.35;97414.09;5014375;28;20112;-63
2022/02/05 08:19:19;;;;;;;10.07;5.88;;;;;;;5.79;68.14;97422.19;5011502;28;20041;-65
2022/02/05 08:21:45;;;;;;;3.95;2.40;;;;;;;5.34;74.23;97434.06;5020201;28;20521;-65
2022/02/05 08:24:10;;;;;;;10.40;5.90;;;;;;;4.09;76.57;97431.25;5013503;28;20033;-65
2022/02/05 08:26:38;;;;;;;25.30;14.95;;;;;;;4.33;77.75;97436.38;5018819;28;20038;-64
2022/02/05 08:29:05;;;;;;;7.30;2.90;;;;;;;5.24;79.20;97430.81;5013574;28;20133;-64
2022/02/05 08:31:31;;;;;;;4.68;2.90;;;;;;;5.90;78.17;97441.72;5017854;28;20072;-65
2022/02/05 08:33:57;;;;;;;8.90;2.85;;;;;;;7.35;63.29;97438.66;5017635;28;20068;-65
2022/02/05 08:36:24;;;;;;;6.20;3.03;;;;;;;8.79;59.29;97437.50;5027189;28;20985;-65
2022/02/05 08:38:51;;;;;;;8.75;2.30;;;;;;;9.73;54.87;97444.13;5017163;28;20160;-64
2022/02/05 08:41:17;;;;;;;7.03;2.60;;;;;;;10.50;51.50;97442.53;5012279;28;20494;-65
2022/02/05 08:43:42;;;;;;;8.13;2.60;;;;;;;10.75;49.85;97445.97;5013121;28;20051;-64
2022/02/05 08:46:08;;;;;;;13.13;2.75;;;;;;;11.15;49.13;97438.78;5012896;28;20108;-65
2022/02/05 08:48:34;;;;;;;12.02;2.70;;;;;;;11.31;48.20;97445.09;5018463;28;20107;-65
2022/02/05 08:51:00;;;;;;;6.28;2.03;;;;;;;10.91;49.72;97443.25;5017015;28;20041;-64
2022/02/05 08:53:25;;;;;;;10.25;2.53;;;;;;;10.55;51.69;97446.94;5013594;28;20111;-65
2022/02/05 08:55:52;;;;;;;3.50;1.90;;;;;;;9.07;52.35;97449.75;5018900;28;20480;-64
2022/02/05 08:58:19;;;;;;;5.60;1.95;;;;;;;10.60;50.50;97444.75;5012608;28;20498;-64
2022/02/05 09:00:47;;;;;;;6.75;2.20;;;;;;;11.54;46.84;97447.19;5017275;28;20053;-64
2022/02/05 09:03:29;;;;;;;6.20;1.75;;;;;;;11.77;46.17;97450.09;5009124;28;20049;-65
2022/02/05 09:05:54;;;;;;;19.20;2.10;;;;;;;11.96;45.41;97446.66;5016491;28;20077;-65
2022/02/05 09:08:31;;;;;;;6.57;1.83;;;;;;;12.14;44.73;97439.63;5009303;28;20077;-64
2022/02/05 09:11:12;;;;;;;4.75;1.90;;;;;;;12.06;44.51;97448.84;5018466;28;20178;-64
2022/02/05 09:16:05;;;;;;;5.32;1.90;;;;;;;11.92;44.72;97459.50;5014325;28;20049;-64
2022/02/05 09:18:30;;;;;;;13.77;1.90;;;;;;;12.01;43.54;97462.84;5015305;28;20467;-65
2022/02/05 09:20:56;;;;;;;8.38;1.48;;;;;;;11.93;44.01;97459.13;5017974;28;20053;-65
2022/02/05 09:23:22;;;;;;;5.45;1.88;;;;;;;12.01;43.78;97458.16;5008774;28;20202;-66
2022/02/05 09:25:48;;;;;;;11.45;1.10;;;;;;;12.26;42.72;97457.91;5017567;28;20044;-67
2022/02/05 09:28:13;;;;;;;13.00;1.40;;;;;;;11.75;43.51;97460.66;5014961;28;20041;-66
2022/02/05 09:33:23;;;;;;;8.95;1.20;;;;;;;12.57;41.53;97457.00;5011931;28;20489;-67
2022/02/05 09:35:48;;;;;;;14.05;1.52;;;;;;;12.03;41.32;97458.59;5022884;28;20044;-67
2022/02/05 09:38:14;;;;;;;5.35;0.93;;;;;;;13.05;38.99;97459.50;5013514;28;20046;-66
2022/02/05 09:40:39;;;;;;;9.27;1.50;;;;;;;12.78;40.07;97456.66;5014137;28;20069;-66
2022/02/05 09:43:05;;;;;;;5.55;1.10;;;;;;;12.12;38.75;97452.91;5011338;28;20498;-64
2022/02/05 09:45:35;;;;;;;9.02;0.80;;;;;;;12.31;38.80;97452.13;5017371;28;20048;-65
2022/02/05 09:48:00;;;;;;;5.28;0.85;;;;;;;13.10;37.40;97456.44;5015768;28;20041;-67
2022/02/05 09:50:26;;;;;;;8.63;1.17;;;;;;;13.42;36.66;97463.75;5012273;28;20107;-65
2022/02/05 09:52:54;;;;;;;3.92;1.02;;;;;;;13.50;36.94;97457.19;5017765;28;20136;-64
2022/02/05 09:55:19;;;;;;;6.95;1.42;;;;;;;13.37;36.93;97467.56;5013133;28;20060;-66
2022/02/05 09:57:45;;;;;;;7.72;1.42;;;;;;;11.86;38.53;97465.22;5018088;28;20506;-66
2022/02/05 10:00:19;;;;;;;5.43;1.08;;;;;;;13.86;36.33;97466.03;5015629;28;20552;-64
2022/02/05 10:02:50;;;;;;;4.82;1.05;;;;;;;13.68;33.85;97472.03;5019267;28;20111;-65
2022/02/05 10:05:21;;;;;;;1.92;0.60;;;;;;;14.53;34.18;97473.66;5013670;28;20052;-65
2022/02/05 10:07:57;;;;;;;7.57;1.00;;;;;;;13.77;34.34;97480.84;5017524;28;20096;-66
2022/02/05 10:10:24;;;;;;;2.08;0.65;;;;;;;13.71;33.49;97481.53;5013291;28;20172;-65
2022/02/05 10:13:06;;;;;;;1.30;0.47;;;;;;;12.99;35.06;97486.50;5020521;28;20502;-65
2022/02/05 10:15:33;;;;;;;3.10;1.35;;;;;;;13.22;34.42;97484.94;5019493;28;20052;-65
2022/02/05 10:17:58;;;;;;;9.32;1.00;;;;;;;13.43;35.44;97485.34;5018684;28;20046;-65
2022/02/05 10:20:23;;;;;;;3.50;0.80;;;;;;;14.09;33.16;97491.56;5014533;28;20080;-65
2022/02/05 10:22:49;;;;;;;5.90;2.05;;;;;;;13.03;35.61;97492.06;5017899;28;20045;-65
2022/02/05 10:25:24;;;;;;;5.60;1.65;;;;;;;11.27;41.94;97494.34;5015300;28;20045;-66
2022/02/05 10:27:51;;;;;;;4.07;1.38;;;;;;;9.53;45.88;97492.31;5016354;28;20125;-64
2022/02/05 10:30:22;;;;;;;3.75;1.67;;;;;;;9.09;49.21;97483.81;5014609;28;20053;-64
2022/02/05 10:32:58;;;;;;;4.13;1.80;;;;;;;8.82;51.04;97484.41;5017801;28;20152;-64
2022/02/05 10:38:00;;;;;;;4.07;1.55;;;;;;;8.95;51.50;97472.41;5021310;28;20052;-65
2022/02/05 10:40:42;;;;;;;4.75;2.05;;;;;;;8.75;51.13;97474.81;5017521;28;20068;-65
2022/02/05 10:43:12;;;;;;;2.55;1.38;;;;;;;9.04;51.23;97475.84;5017800;28;20049;-65
2022/02/05 10:45:37;;;;;;;;;;;;;;;9.32;50.10;97476.00;5023728;28;20466;-64
2022/02/05 10:48:03;;;;;;;2.80;1.00;;;;;;;9.32;49.01;97470.53;5028703;28;19928;-65
2022/02/05 10:50:30;;;;;;;4.38;1.73;;;;;;;9.11;49.43;97467.88;5033905;28;20289;-64
2022/02/05 10:53:09;;;;;;;3.25;1.40;;;;;;;9.17;49.58;97466.53;5023666;28;20041;-64
2022/02/05 10:55:57;;;;;;;5.63;2.03;;;;;;;9.24;50.63;97468.69;5021466;28;20068;-65
2022/02/05 11:06:03;;;;;;;7.45;2.38;;;;;;;8.50;53.15;97463.00;5020297;28;20035;-65
2022/02/05 11:08:29;;;;;;;3.35;1.25;;;;;;;9.29;51.07;97464.94;5020654;28;20540;-65
2022/02/05 11:18:55;;;;;;;8.85;3.75;;;;;;;8.63;52.38;97455.66;5020102;28;20091;-64
2022/02/05 11:21:21;;;;;;;3.80;1.50;;;;;;;8.87;51.69;97445.94;5015232;28;20057;-64
2022/02/05 11:23:50;;;;;;;23.08;7.93;;;;;;;8.32;53.31;97442.38;5022166;28;20047;-63
2022/02/05 11:26:20;;;;;;;18.75;6.53;;;;;;;8.20;53.62;97429.50;5015916;28;20043;-63
2022/02/05 11:28:46;;;;;;;;;;;;;;;8.41;53.88;97424.03;5023900;28;20060;-64
2022/02/05 11:31:35;;;;;;;4.68;1.90;;;;;;;8.88;52.79;97422.97;5016023;28;19925;-66
2022/02/05 11:34:13;;;;;;;3.22;1.60;;;;;;;8.80;53.18;97422.72;5016558;28;20184;-66
2022/02/05 11:36:40;;;;;;;3.58;1.30;;;;;;;8.51;53.67;97425.56;5020503;28;20390;-65
2022/02/05 11:39:06;;;;;;;2.63;1.20;;;;;;;8.94;51.82;97425.13;5016157;28;20041;-65
2022/02/05 11:41:35;;;;;;;4.65;1.73;;;;;;;8.73;52.70;97429.84;5021609;28;20065;-62
2022/02/05 11:44:19;;;;;;;3.92;1.40;;;;;;;9.45;50.75;97433.06;5022686;28;20041;-64
2022/02/05 11:47:04;;;;;;;2.55;1.42;;;;;;;9.81;49.42;97428.72;5020223;28;20173;-63
2022/02/05 11:49:52;;;;;;;2.28;1.20;;;;;;;9.63;49.35;97428.16;5015589;28;20045;-63
2022/02/05 11:52:36;;;;;;;5.38;1.52;;;;;;;10.32;49.80;97420.09;5009545;28;20049;-65
2022/02/05 11:55:05;;;;;;;6.13;2.00;;;;;;;10.76;48.45;97430.31;5020226;28;20069;-64
2022/02/05 11:57:43;;;;;;;4.47;2.15;;;;;;;10.09;49.88;97417.84;5021098;28;20081;-66
2022/02/05 12:00:22;;;;;;;3.40;1.92;;;;;;;9.21;51.90;97414.72;5012115;28;20076;-65
2022/02/05 12:03:00;;;;;;;2.60;1.53;;;;;;;10.20;50.02;97417.38;5020043;28;20113;-66
2022/02/05 12:05:37;;;;;;;3.35;1.30;;;;;;;9.79;51.60;97420.06;5014245;28;20791;-64
2022/02/05 12:08:05;;;;;;;3.70;1.40;;;;;;;10.45;50.22;97420.84;5016581;28;20045;-64
2022/02/05 12:10:38;;;;;;;4.45;2.30;;;;;;;10.55;50.28;97425.03;5015850;28;20136;-65
2022/02/05 12:13:27;;;;;;;3.90;1.67;;;;;;;11.29;47.06;97419.97;5012462;28;20041;-64
2022/02/05 12:15:55;;;;;;;2.40;1.30;;;;;;;10.96;47.64;97425.75;5020181;28;20037;-65
2022/02/05 12:18:26;;;;;;;2.90;1.65;;;;;;;10.74;49.03;97421.66;5013077;28;21548;-64
2022/02/05 12:21:03;;;;;;;4.72;1.63;;;;;;;10.63;49.13;97421.34;5023065;28;20049;-65
2022/02/05 12:26:15;;;;;;;3.42;1.98;;;;;;;12.01;44.44;97413.41;5017815;28;20454;-66
2022/02/05 12:28:45;;;;;;;4.20;1.38;;;;;;;12.28;43.64;97411.66;5020829;28;20053;-63
2022/02/05 12:31:18;;;;;;;6.93;3.00;;;;;;;11.20;45.66;97405.59;5014888;28;20502;-65
2022/02/05 12:33:59;;;;;;;5.25;1.92;;;;;;;10.60;45.88;97413.84;5031673;28;20033;-64
2022/02/05 12:36:36;;;;;;;13.43;5.03;;;;;;;11.55;45.59;97391.97;5015828;28;20131;-64
2022/02/05 12:39:07;;;;;;;10.80;1.80;;;;;;;10.67;45.84;97406.59;5017645;28;20068;-65
2022/02/05 12:41:35;;;;;;;5.90;2.30;;;;;;;11.12;45.88;97401.09;5021845;28;20077;-65
2022/02/05 12:44:03;;;;;;;3.63;1.50;;;;;;;11.02;44.76;97396.94;5020156;28;20045;-65
2022/02/05 12:46:49;;;;;;;14.73;7.25;;;;;;;10.65;46.67;97406.16;5017072;28;20335;-64
2022/02/05 12:49:19;;;;;;;9.32;1.77;;;;;;;10.38;45.36;97391.31;5012722;28;20590;-65
2022/02/05 12:51:48;;;;;;;3.78;1.20;;;;;;;10.36;45.91;97395.56;5012016;28;20046;-64
2022/02/05 12:54:18;;;;;;;5.65;1.25;;;;;;;10.30;46.16;97392.25;5013159;28;20109;-64
2022/02/05 12:56:45;;;;;;;7.53;1.30;;;;;;;10.25;45.22;97389.75;5021377;28;20111;-65
2022/02/05 12:59:22;;;;;;;4.07;1.35;;;;;;;10.92;45.17;97386.50;5015463;28;20041;-64
2022/02/05 13:01:58;;;;;;;4.82;1.52;;;;;;;11.15;45.07;97389.44;5016055;28;20076;-65
2022/02/05 13:04:25;;;;;;;4.45;1.48;;;;;;;11.30;44.14;97383.16;5011228;28;20059;-63
2022/02/05 13:07:03;;;;;;;6.88;1.60;;;;;;;11.76;42.88;97377.19;5022701;28;20045;-64
2022/02/05 13:09:31;;;;;;;2.88;1.20;;;;;;;10.89;43.67;97371.53;5020994;28;20057;-65
2022/02/05 13:12:01;;;;;;;2.22;1.02;;;;;;;10.97;43.89;97370.59;5018219;28;20072;-64
2022/02/05 13:14:35;;;;;;;4.45;1.67;;;;;;;10.99;43.05;97367.50;5013264;28;20037;-65
2022/02/05 13:17:00;;;;;;;3.72;1.05;;;;;;;10.34;45.60;97371.25;5017287;28;20049;-65
2022/02/05 13:19:29;;;;;;;2.40;1.33;;;;;;;9.49;47.11;97360.16;5016101;28;20072;-65
2022/02/05 13:27:41;;;;;;;2.47;1.30;;;;;;;9.10;48.70;97359.69;5012046;28;20856;-65
2022/02/05 13:36:15;;;;;;;1.88;1.30;;;;;;;8.64;49.24;97347.22;5018686;28;20073;-65
2022/02/05 13:39:06;;;;;;;3.75;1.23;;;;;;;8.90;48.65;97341.47;5011924;28;20045;-64
2022/02/05 13:41:47;;;;;;;2.10;1.15;;;;;;;8.85;49.09;97342.47;5019313;28;20045;-66
2022/02/05 13:44:19;;;;;;;4.35;1.08;;;;;;;8.39;50.16;97341.66;5014094;28;20120;-64
2022/02/05 13:47:06;;;;;;;2.50;1.05;;;;;;;7.82;50.41;97337.69;5020705;28;20053;-63
2022/02/05 13:49:33;;;;;;;6.13;1.45;;;;;;;7.51;51.66;97347.03;5019137;28;20353;-64
2022/02/05 13:52:12;;;;;;;4.28;1.50;;;;;;;7.83;51.35;97347.44;5017711;28;20069;-65
2022/02/05 13:54:39;;;;;;;7.57;3.28;;;;;;;7.51;51.68;97348.94;5020394;28;20052;-64
2022/02/05 13:57:06;;;;;;;4.40;1.20;;;;;;;7.53;52.52;97349.44;5013541;28;20045;-63
2022/02/05 13:59:34;;;;;;;3.65;1.33;;;;;;;7.63;52.06;97351.75;5019737;28;20042;-65
2022/02/05 14:02:19;;;;;;;2.92;1.20;;;;;;;7.35;52.71;97349.53;5015092;28;20478;-65
2022/02/05 14:05:08;;;;;;;3.30;1.33;;;;;;;7.23;52.38;97344.78;5019174;28;20041;-65
2022/02/05 14:07:47;;;;;;;8.50;2.20;;;;;;;7.62;52.08;97352.91;5018543;28;20052;-66
2022/02/05 14:10:19;;;;;;;9.73;1.95;;;;;;;7.71;50.47;97340.00;5014090;28;20041;-66
2022/02/05 14:12:50;;;;;;;3.13;1.00;;;;;;;7.58;50.15;97347.31;5020755;28;20475;-65
2022/02/05 14:15:17;;;;;;;2.95;1.20;;;;;;;7.52;49.79;97347.81;5019471;28;20030;-64
2022/02/05 14:17:43;;;;;;;4.75;1.15;;;;;;;7.37;49.89;97347.28;5033094;28;20455;-65
2022/02/05 14:20:12;;;;;;;3.13;1.25;;;;;;;7.59;49.35;97357.06;5019181;28;20917;-66
2022/02/05 14:22:40;;;;;;;1.63;1.02;;;;;;;7.46;50.44;97363.56;5023343;28;20041;-63
2022/02/05 14:25:30;;;;;;;4.10;2.22;;;;;;;7.38;51.37;97359.78;5018656;28;20461;-64
2022/02/05 14:28:26;;;;;;;3.35;1.55;;;;;;;7.59;49.78;97365.25;5029030;28;20041;-64
2022/02/05 14:36:35;;;;;;;3.78;1.40;;;;;;;7.52;50.81;97351.34;5019020;28;20075;-63
2022/02/05 14:41:46;;;;;;;5.10;1.63;;;;;;;7.07;49.26;97341.00;5022405;28;20525;-65
2022/02/05 14:44:12;;;;;;;3.30;1.00;;;;;;;6.69;50.32;97356.22;5033503;28;20041;-65
2022/02/05 14:46:40;;;;;;;4.53;1.00;;;;;;;6.82;50.59;97348.97;5020272;28;20041;-65
2022/02/05 14:49:06;;;;;;;2.65;1.08;;;;;;;6.72;50.79;97349.34;5014844;28;20041;-64
2022/02/05 14:51:31;;;;;;;3.00;1.20;;;;;;;6.83;50.42;97347.06;5023316;28;20118;-65
2022/02/05 14:53:59;;;;;;;4.35;1.20;;;;;;;6.94;50.27;97347.50;5023171;28;20045;-66
2022/02/05 14:56:25;;;;;;;3.20;1.05;;;;;;;7.13;49.54;97338.91;5023512;28;20138;-65